Time;durP1;ratioP1;P1;durP2;ratioP2;P2;SDS_P1;SDS_P2;PMS_P1;PMS_P2;Temp;Humidity;BMP_temperature;BMP_pressure;BME280_temperature;BME280_humidity;BME280_pressure;Samples;Min_cycle;Max_cycle;Signal;HPM_P1;HPM_P2
2023/03/02 00:00:45;;;;;;;2.35;2.22;;;1.80;89.80;;;;;;5015394;28;20229;-65
2023/03/02 00:03:13;;;;;;;2.40;2.20;;;1.80;90.00;;;;;;5030275;28;20228;-66
2023/03/02 00:05:41;;;;;;;2.08;1.50;;;1.80;90.10;;;;;;5028218;28;20212;-66
2023/03/02 00:08:09;;;;;;;16.75;4.80;;;1.70;90.10;;;;;;5011353;28;20193;-66
2023/03/02 00:10:37;;;;;;;2.88;1.55;;;1.60;90.30;;;;;;5011732;28;20228;-66
2023/03/02 00:13:05;;;;;;;7.25;2.60;;;1.60;90.40;;;;;;5023342;28;20189;-66
2023/03/02 00:15:32;;;;;;;3.85;1.98;;;1.50;90.40;;;;;;5029328;28;20579;-66
2023/03/02 00:17:59;;;;;;;1213.97;577.58;;;1.60;90.40;;;;;;5015160;28;20193;-67
2023/03/02 00:20:26;;;;;;;2.67;2.42;;;1.50;90.40;;;;;;5015660;28;20311;-66
2023/03/02 00:22:52;;;;;;;6.35;4.03;;;1.50;90.50;;;;;;5010481;28;20193;-66
2023/03/02 00:25:19;;;;;;;6.57;2.53;;;1.50;90.50;;;;;;5010465;28;20204;-66
2023/03/02 00:27:46;;;;;;;2.33;1.85;;;1.50;90.70;;;;;;5028194;28;20839;-66
2023/03/02 00:30:15;;;;;;;2.95;1.25;;;1.40;94.10;;;;;;5026833;28;20208;-66
2023/03/02 00:32:43;;;;;;;2.65;2.22;;;1.50;90.70;;;;;;5027978;28;20196;-66
2023/03/02 00:35:10;;;;;;;1.67;1.33;;;1.40;90.70;;;;;;5017349;28;20252;-66
2023/03/02 00:37:37;;;;;;;2.53;2.13;;;1.50;90.80;;;;;;5027369;28;20212;-66
2023/03/02 00:40:08;;;;;;;5.03;3.50;;;1.50;90.80;;;;;;5030214;28;20292;-66
2023/03/02 00:42:35;;;;;;;4.57;2.63;;;1.50;90.70;;;;;;5028585;28;20219;-67
2023/03/02 00:45:02;;;;;;;3.15;2.08;;;1.40;90.90;;;;;;5029715;28;20234;-66
2023/03/02 00:47:33;;;;;;;3.00;2.47;;;1.40;91.00;;;;;;5019032;28;20190;-65
2023/03/02 00:50:00;;;;;;;2.95;1.60;;;1.40;91.00;;;;;;5011931;28;20280;-66
2023/03/02 00:52:28;;;;;;;2.80;2.60;;;1.40;91.10;;;;;;5018992;28;20227;-66
2023/03/02 00:54:55;;;;;;;1.70;1.20;;;1.50;98.60;;;;;;5010544;28;20584;-66
2023/03/02 00:57:22;;;;;;;4.18;3.80;;;1.40;91.10;;;;;;5010830;28;20220;-66
2023/03/02 00:59:49;;;;;;;2.72;2.53;;;1.30;91.20;;;;;;5032458;28;20222;-66
2023/03/02 01:02:15;;;;;;;5.28;3.20;;;1.20;91.30;;;;;;5011245;28;20223;-66
2023/03/02 01:04:45;;;;;;;1.90;1.80;;;1.30;94.80;;;;;;5010827;28;20228;-65
2023/03/02 01:07:14;;;;;;;2.45;2.05;;;1.10;91.60;;;;;;5026571;28;20221;-66
2023/03/02 01:09:43;;;;;;;3.90;1.45;;;1.20;98.00;;;;;;5027548;28;20686;-66
2023/03/02 01:12:11;;;;;;;5.07;4.55;;;1.00;91.80;;;;;;5010924;28;20217;-66
2023/03/02 01:14:38;;;;;;;2.45;2.10;;;1.10;92.00;;;;;;5011710;28;20189;-66
2023/03/02 01:17:06;;;;;;;2.42;2.22;;;1.10;91.90;;;;;;5018567;28;20224;-66
2023/03/02 01:19:33;;;;;;;4.93;2.30;;;1.00;91.90;;;;;;5016079;28;20197;-66
2023/03/02 01:22:02;;;;;;;1.75;1.65;;;1.00;92.00;;;;;;5027577;28;20220;-66
2023/03/02 01:24:29;;;;;;;1.30;1.30;;;1.10;92.10;;;;;;5029965;28;20234;-66
2023/03/02 01:26:55;;;;;;;3.90;3.60;;;1.10;92.10;;;;;;5017440;28;20217;-66
2023/03/02 01:29:22;;;;;;;5.57;3.78;;;1.10;92.00;;;;;;5023075;28;20280;-66
2023/03/02 01:31:49;;;;;;;4.25;2.25;;;1.00;92.00;;;;;;5028074;28;20217;-65
2023/03/02 01:34:16;;;;;;;2.83;2.63;;;1.00;92.10;;;;;;5022647;28;20200;-66
2023/03/02 01:36:44;;;;;;;2.78;2.60;;;1.00;92.30;;;;;;5028946;28;20228;-66
2023/03/02 01:39:14;;;;;;;0.93;0.85;;;1.10;92.60;;;;;;5017926;28;20525;-66
2023/03/02 01:41:41;;;;;;;2.33;2.22;;;1.10;92.20;;;;;;5032731;28;20224;-66
2023/03/02 01:44:36;;;;;;;2.15;2.05;;;1.00;92.30;;;;;;5028899;28;20307;-66
2023/03/02 01:47:05;;;;;;;1.60;1.50;;;0.90;92.30;;;;;;5016145;28;20217;-66
2023/03/02 01:49:37;;;;;;;0.70;0.70;;;0.80;92.50;;;;;;5009196;28;20193;-66
2023/03/02 01:52:04;;;;;;;3.70;3.20;;;0.80;92.70;;;;;;5014954;28;20216;-66
2023/03/02 01:54:32;;;;;;;2.30;2.08;;;0.80;92.80;;;;;;5029230;28;20208;-66
2023/03/02 01:57:01;;;;;;;3.20;1.13;;;0.70;92.90;;;;;;5024540;28;20223;-66
2023/03/02 01:59:31;;;;;;;4.15;3.85;;;0.70;93.10;;;;;;5042081;28;20195;-66
2023/03/02 02:02:02;;;;;;;6.10;2.78;;;0.60;99.90;;;;;;5025665;28;20228;-66
2023/03/02 02:04:31;;;;;;;3.92;1.95;;;0.60;93.10;;;;;;5028526;28;20806;-66
2023/03/02 02:07:01;;;;;;;0.80;0.80;;;0.60;93.20;;;;;;5021881;28;20217;-66
2023/03/02 02:09:31;;;;;;;8.05;4.75;;;0.60;93.20;;;;;;5019508;28;20220;-66
2023/03/02 02:12:00;;;;;;;2.67;2.45;;;0.60;93.30;;;;;;5026326;28;20578;-66
2023/03/02 02:14:28;;;;;;;5.20;1.17;;;0.80;99.90;;;;;;5029343;28;20230;-66
2023/03/02 02:16:56;;;;;;;3.28;1.33;;;0.60;93.30;;;;;;5024171;28;20291;-66
2023/03/02 02:19:38;;;;;;;5.50;2.97;;;0.60;93.30;;;;;;5009662;28;20204;-66
2023/03/02 02:22:05;;;;;;;3.47;1.95;;;0.60;93.30;;;;;;5020696;28;20225;-66
2023/03/02 02:24:38;;;;;;;4.20;2.65;;;0.50;93.40;;;;;;5027491;28;20656;-67
2023/03/02 02:27:08;;;;;;;2.42;2.33;;;0.50;93.60;;;;;;5023180;28;20224;-66
2023/03/02 02:29:37;;;;;;;3.70;3.47;;;0.50;93.80;;;;;;5012328;28;20296;-67
2023/03/02 02:32:11;;;;;;;9.20;1.58;;;0.50;99.90;;;;;;5014786;28;20240;-66
2023/03/02 02:34:43;;;;;;;2.53;2.20;;;0.30;94.10;;;;;;5028555;28;20196;-65
2023/03/02 02:37:15;;;;;;;2.53;2.35;;;0.40;99.90;;;;;;5030804;28;20278;-66
2023/03/02 02:39:46;;;;;;;4.88;2.22;;;0.30;94.40;;;;;;5033089;28;20679;-65
2023/03/02 02:42:18;;;;;;;1.98;1.88;;;0.20;94.70;;;;;;5032451;28;20244;-66
2023/03/02 02:44:46;;;;;;;3.63;1.38;;;;;;;;;;5032920;28;20262;-66
2023/03/02 02:47:17;;;;;;;1.33;1.30;;;0.30;94.70;;;;;;5030827;28;20244;-66
2023/03/02 02:49:46;;;;;;;4.05;3.75;;;0.10;95.00;;;;;;5031681;28;20203;-66
2023/03/02 02:52:16;;;;;;;5.50;3.13;;;0.10;95.10;;;;;;5025322;28;20248;-66
2023/03/02 02:54:46;;;;;;;0.75;0.75;;;0.10;95.00;;;;;;5032937;28;20256;-66
2023/03/02 02:57:16;;;;;;;5.13;3.25;;;0.10;95.10;;;;;;5015725;28;20228;-66
2023/03/02 02:59:49;;;;;;;2.88;1.50;;;0.30;98.80;;;;;;5042660;28;20728;-66
2023/03/02 03:02:19;;;;;;;1.50;1.40;;;0.10;95.10;;;;;;5026639;28;20244;-65
2023/03/02 03:04:47;;;;;;;3.10;1.42;;;0.20;95.10;;;;;;5013190;28;20221;-66
2023/03/02 03:07:21;;;;;;;8.98;2.40;;;0.20;95.00;;;;;;5027142;28;20704;-66
2023/03/02 03:09:51;;;;;;;2.78;1.25;;;0.30;95.10;;;;;;5012915;28;20216;-66
2023/03/02 03:12:22;;;;;;;4.00;1.80;;;0.20;95.10;;;;;;5028870;28;20283;-66
2023/03/02 03:14:50;;;;;;;2.88;1.70;;;0.20;95.30;;;;;;5015763;28;20197;-66
2023/03/02 03:17:17;;;;;;;2.00;1.80;;;0.10;95.30;;;;;;5032163;28;20216;-65
2023/03/02 03:19:46;;;;;;;3.03;2.47;;;0.10;95.50;;;;;;5028666;28;20290;-66
2023/03/02 03:22:16;;;;;;;4.28;2.17;;;0.10;95.60;;;;;;5032454;28;20266;-65
2023/03/02 03:24:44;;;;;;;9.68;2.35;;;0.00;95.70;;;;;;5013151;28;20231;-66
2023/03/02 03:27:14;;;;;;;6.10;3.17;;;0.10;99.20;;;;;;5026690;28;20224;-66
2023/03/02 03:29:46;;;;;;;2.35;1.27;;;0.10;95.60;;;;;;5013980;28;20567;-66
2023/03/02 03:32:15;;;;;;;3.03;2.30;;;0.10;95.50;;;;;;5012904;28;20614;-66
2023/03/02 03:34:42;;;;;;;1.80;1.13;;;0.20;95.60;;;;;;5019073;28;20224;-65
2023/03/02 03:37:10;;;;;;;3.75;3.40;;;0.20;95.60;;;;;;5032227;28;20239;-66
2023/03/02 03:39:38;;;;;;;3.40;2.63;;;0.50;98.90;;;;;;5012707;28;20201;-66
2023/03/02 03:42:05;;;;;;;2.08;1.98;;;0.10;95.20;;;;;;5012647;28;20692;-66
2023/03/02 03:44:33;;;;;;;2.85;2.63;;;0.20;95.20;;;;;;5011823;28;20233;-66
2023/03/02 03:47:02;;;;;;;4.60;3.33;;;0.10;99.90;;;;;;5026944;28;20227;-65
2023/03/02 03:49:30;;;;;;;1.83;1.73;;;0.20;95.40;;;;;;5030406;28;20197;-66
2023/03/02 03:51:57;;;;;;;5.05;4.50;;;0.20;95.40;;;;;;5030196;28;20225;-66
2023/03/02 03:54:25;;;;;;;5.85;4.35;;;0.20;95.50;;;;;;5030248;28;20236;-65
2023/03/02 03:56:52;;;;;;;1.98;1.60;;;0.20;95.50;;;;;;5025011;28;20231;-66
2023/03/02 03:59:22;;;;;;;3.45;1.58;;;0.10;95.50;;;;;;5033692;28;20232;-65
2023/03/02 04:01:53;;;;;;;4.72;3.72;;;0.10;95.40;;;;;;5026397;28;20699;-66
2023/03/02 04:04:25;;;;;;;4.18;2.67;;;0.10;95.60;;;;;;5015024;28;20208;-66
2023/03/02 04:06:53;;;;;;;2.20;1.58;;;0.10;99.90;;;;;;5010902;28;20231;-66
2023/03/02 04:09:20;;;;;;;5.47;3.80;;;0.00;95.60;;;;;;5010738;28;20201;-66
2023/03/02 04:11:50;;;;;;;3.40;3.20;;;0.00;95.70;;;;;;5013146;28;20244;-65
2023/03/02 04:14:17;;;;;;;4.90;2.85;;;0.00;95.90;;;;;;5011466;28;20600;-65
2023/03/02 04:16:44;;;;;;;11.57;2.63;;;0.10;95.80;;;;;;5015697;28;20304;-66
2023/03/02 04:19:12;;;;;;;2.95;1.88;;;0.10;95.70;;;;;;5017815;28;20280;-66
2023/03/02 04:21:43;;;;;;;3.08;2.78;;;0.10;95.60;;;;;;5028767;28;20224;-66
2023/03/02 04:24:11;;;;;;;2.65;2.03;;;0.10;95.50;;;;;;5030948;28;20209;-66
2023/03/02 04:26:40;;;;;;;7.32;4.40;;;0.00;99.90;;;;;;5021308;28;20304;-66
2023/03/02 04:29:08;;;;;;;6.82;2.75;;;0.00;99.90;;;;;;5024205;28;20223;-66
2023/03/02 04:31:34;;;;;;;1.90;1.80;;;0.00;95.70;;;;;;5015009;28;20300;-65
2023/03/02 04:34:03;;;;;;;2.50;2.15;;;0.00;95.70;;;;;;5010712;28;20204;-65
2023/03/02 04:36:30;;;;;;;2.63;2.42;;;0.00;95.70;;;;;;5019194;28;20729;-66
2023/03/02 04:38:58;;;;;;;6.47;4.10;;;0.00;95.90;;;;;;5029133;28;20204;-66
2023/03/02 04:41:25;;;;;;;2.70;1.48;;;0.10;95.70;;;;;;5046943;28;20586;-67
2023/03/02 04:43:52;;;;;;;4.20;3.83;;;0.10;95.80;;;;;;5030373;28;20734;-66
2023/03/02 04:46:22;;;;;;;7.88;2.70;;;0.10;95.90;;;;;;5028795;28;20236;-67
2023/03/02 04:48:49;;;;;;;2.10;2.00;;;0.10;95.80;;;;;;5010150;28;20197;-65
2023/03/02 04:51:20;;;;;;;4.93;2.10;;;0.00;96.10;;;;;;5012831;28;20227;-66
2023/03/02 04:53:46;;;;;;;2.38;2.28;;;0.00;96.20;;;;;;5030648;28;20205;-66
2023/03/02 04:56:14;;;;;;;1.45;1.15;;;0.00;96.30;;;;;;5023353;28;20221;-65
2023/03/02 04:58:41;;;;;;;10.43;3.33;;;0.00;96.40;;;;;;5023502;28;20266;-65
2023/03/02 05:01:09;;;;;;;2.65;1.92;;;0.00;96.40;;;;;;5021137;28;20221;-66
2023/03/02 05:03:36;;;;;;;2.88;2.17;;;0.10;99.40;;;;;;5011088;28;20197;-66
2023/03/02 05:06:03;;;;;;;1.48;1.48;;;0.00;96.20;;;;;;5016627;28;20235;-66
2023/03/02 05:08:30;;;;;;;2.20;2.00;;;0.00;96.20;;;;;;5023312;28;20224;-65
2023/03/02 05:10:57;;;;;;;6.78;1.60;;;0.00;96.20;;;;;;5013927;28;20225;-66
2023/03/02 05:13:26;;;;;;;1.40;1.30;;;0.20;99.40;;;;;;5010145;28;20671;-66
2023/03/02 05:15:56;;;;;;;1.65;1.40;;;0.00;96.10;;;;;;5010445;28;20217;-66
2023/03/02 05:18:23;;;;;;;4.32;3.38;;;0.00;96.10;;;;;;5024917;28;20200;-66
2023/03/02 05:20:51;;;;;;;3.05;2.55;;;0.00;96.40;;;;;;5020567;28;20710;-66
2023/03/02 05:23:23;;;;;;;3.53;3.33;;;0.00;96.20;;;;;;5029826;28;20255;-65
2023/03/02 05:25:50;;;;;;;3.42;3.22;;;;;;;;;;5025958;28;20233;-66
2023/03/02 05:28:18;;;;;;;2.30;2.15;;;0.40;99.90;;;;;;5016645;28;20598;-66
2023/03/02 05:30:46;;;;;;;0.70;0.70;;;0.10;96.60;;;;;;5030012;28;20647;-66
2023/03/02 05:33:13;;;;;;;4.20;2.60;;;0.20;96.40;;;;;;5028215;28;20196;-66
2023/03/02 05:35:40;;;;;;;2.88;2.20;;;0.30;96.50;;;;;;5018367;28;20212;-66
2023/03/02 05:38:07;;;;;;;5.78;1.92;;;0.30;96.40;;;;;;5028565;28;20219;-66
2023/03/02 05:40:34;;;;;;;2.28;2.17;;;0.40;96.50;;;;;;5024962;28;20560;-65
2023/03/02 05:43:01;;;;;;;7.95;2.10;;;0.30;96.50;;;;;;5029764;28;20197;-66
2023/03/02 05:45:31;;;;;;;2.30;2.15;;;0.50;96.60;;;;;;5029626;28;20763;-66
2023/03/02 05:47:59;;;;;;;2.25;1.25;;;0.40;96.50;;;;;;5029656;28;20199;-66
2023/03/02 05:50:26;;;;;;;14.80;7.68;;;0.30;96.50;;;;;;5020760;28;20755;-66
2023/03/02 05:52:53;;;;;;;4.60;4.20;;;0.40;96.70;;;;;;5024141;28;20207;-66
2023/03/02 05:55:20;;;;;;;9.13;3.42;;;0.50;96.80;;;;;;5027685;28;20201;-66
2023/03/02 05:57:48;;;;;;;7.25;3.22;;;0.50;96.60;;;;;;5010500;28;20192;-65
2023/03/02 06:00:16;;;;;;;3.05;1.40;;;0.50;96.50;;;;;;5018224;28;20193;-66
2023/03/02 06:02:43;;;;;;;4.30;2.33;;;0.60;96.50;;;;;;5026481;28;20284;-65
2023/03/02 06:05:13;;;;;;;4.97;3.50;;;0.60;96.30;;;;;;5017508;28;20226;-65
2023/03/02 06:07:40;;;;;;;3.88;1.25;;;0.60;99.40;;;;;;5032488;28;20280;-65
2023/03/02 06:10:09;;;;;;;4.72;3.40;;;0.70;96.20;;;;;;5027516;28;20251;-66
2023/03/02 06:12:36;;;;;;;2.35;2.25;;;0.70;96.00;;;;;;5029466;28;20203;-67
2023/03/02 06:15:03;;;;;;;4.85;4.28;;;0.80;95.80;;;;;;5033812;28;20201;-65
2023/03/02 06:17:30;;;;;;;1.92;1.83;;;0.90;95.60;;;;;;5021210;28;20202;-66
2023/03/02 06:19:56;;;;;;;1.70;1.50;;;0.80;95.90;;;;;;5012917;28;20193;-66
2023/03/02 06:22:25;;;;;;;2.47;1.83;;;0.80;96.00;;;;;;5013195;28;20233;-66
2023/03/02 06:24:53;;;;;;;6.53;2.42;;;0.90;96.10;;;;;;5014064;28;20209;-65
2023/03/02 06:27:20;;;;;;;5.22;3.78;;;0.90;96.20;;;;;;5029245;28;20226;-65
2023/03/02 06:29:47;;;;;;;1.40;1.30;;;0.90;96.10;;;;;;5012997;28;20220;-65
2023/03/02 06:32:14;;;;;;;1.80;1.42;;;0.90;95.90;;;;;;5013156;28;20230;-65
2023/03/02 06:34:41;;;;;;;1.30;1.30;;;1.00;96.00;;;;;;5014048;28;20288;-67
2023/03/02 06:37:07;;;;;;;15.45;8.40;;;1.00;95.70;;;;;;5013806;28;20232;-65
2023/03/02 06:39:36;;;;;;;4.00;1.40;;;1.00;95.70;;;;;;5016567;28;20193;-65
2023/03/02 06:42:02;;;;;;;7.70;2.92;;;0.90;99.10;;;;;;5029660;28;20232;-66
2023/03/02 06:44:29;;;;;;;19.00;3.05;;;1.00;96.00;;;;;;5018465;28;20237;-65
2023/03/02 06:46:56;;;;;;;2.30;1.65;;;1.10;95.90;;;;;;5024381;28;20233;-66
2023/03/02 06:49:23;;;;;;;2.88;2.67;;;1.80;99.90;;;;;;5011165;28;20208;-65
2023/03/02 06:51:50;;;;;;;1.88;1.10;;;1.20;95.80;;;;;;5031663;28;20296;-65
2023/03/02 06:54:17;;;;;;;2.17;2.08;;;1.10;95.90;;;;;;5016740;28;20288;-65
2023/03/02 06:56:45;;;;;;;11.05;6.75;;;1.20;99.90;;;;;;5026066;28;20746;-66
2023/03/02 06:59:12;;;;;;;3.47;2.40;;;1.20;95.80;;;;;;5034829;28;20197;-65
2023/03/02 07:01:38;;;;;;;2.67;0.90;;;1.20;95.70;;;;;;5022332;28;20221;-68
2023/03/02 07:04:05;;;;;;;1.83;1.73;;;1.20;95.60;;;;;;5017196;28;20209;-67
2023/03/02 07:06:32;;;;;;;2.80;1.65;;;1.20;95.70;;;;;;5022304;28;20228;-68
2023/03/02 07:08:59;;;;;;;1.58;1.48;;;1.30;95.60;;;;;;5029785;28;20658;-67
2023/03/02 07:11:25;;;;;;;3.65;1.88;;;1.30;95.50;;;;;;5016834;28;20218;-69
2023/03/02 07:13:54;;;;;;;2.65;2.42;;;1.40;95.50;;;;;;5026480;28;20205;-67
2023/03/02 07:16:20;;;;;;;3.30;2.70;;;1.40;95.50;;;;;;5025047;28;20583;-68
2023/03/02 07:18:47;;;;;;;1.58;1.45;;;1.40;95.60;;;;;;5029700;28;20201;-67
2023/03/02 07:21:14;;;;;;;4.20;1.60;;;1.40;95.80;;;;;;5031046;28;20216;-68
2023/03/02 07:23:40;;;;;;;3.47;2.22;;;1.40;95.80;;;;;;5013398;28;20223;-67
2023/03/02 07:26:07;;;;;;;4.47;1.90;;;1.40;95.60;;;;;;5018197;28;20236;-67
2023/03/02 07:28:35;;;;;;;12.50;3.15;;;1.40;95.30;;;;;;5021269;28;20726;-67
2023/03/02 07:31:03;;;;;;;1.63;1.33;;;1.40;95.30;;;;;;5017780;28;20220;-67
2023/03/02 07:33:30;;;;;;;2.10;1.98;;;1.40;95.60;;;;;;5024417;28;20205;-67
2023/03/02 07:35:57;;;;;;;1.50;1.40;;;1.50;95.10;;;;;;5028530;28;20902;-67
2023/03/02 07:38:24;;;;;;;2.30;1.95;;;1.50;95.00;;;;;;5030521;28;20199;-67
2023/03/02 07:40:51;;;;;;;3.45;2.15;;;1.50;95.30;;;;;;5032797;28;20217;-67
2023/03/02 07:43:18;;;;;;;5.68;4.22;;;1.50;95.40;;;;;;5017631;28;20404;-67
2023/03/02 07:45:45;;;;;;;4.53;3.85;;;1.60;95.40;;;;;;5012251;28;20256;-66
2023/03/02 07:48:13;;;;;;;2.35;2.25;;;1.60;95.10;;;;;;5014273;28;20196;-67
2023/03/02 07:50:40;;;;;;;9.82;2.63;;;1.60;95.10;;;;;;5011744;28;20589;-67
2023/03/02 07:53:07;;;;;;;5.20;2.28;;;1.60;95.30;;;;;;5025120;28;20215;-67
2023/03/02 07:55:34;;;;;;;6.38;1.95;;;1.70;95.30;;;;;;5017866;28;20215;-67
2023/03/02 07:58:01;;;;;;;2.22;2.08;;;1.90;98.30;;;;;;5013594;28;20189;-68
2023/03/02 08:00:27;;;;;;;4.22;3.22;;;1.80;94.90;;;;;;5026377;28;20223;-69
2023/03/02 08:02:54;;;;;;;0.80;0.75;;;2.00;99.90;;;;;;5027271;28;20571;-67
2023/03/02 08:05:22;;;;;;;4.68;4.00;;;1.90;94.80;;;;;;5028423;28;20553;-68
2023/03/02 08:07:50;;;;;;;4.50;2.03;;;1.90;99.90;;;;;;5012001;28;20660;-68
2023/03/02 08:10:16;;;;;;;3.20;2.90;;;1.90;94.40;;;;;;5010337;28;20675;-66
2023/03/02 08:12:44;;;;;;;5.13;2.60;;;2.10;94.50;;;;;;5024926;28;20199;-66
2023/03/02 08:15:11;;;;;;;3.78;2.45;;;2.10;94.30;;;;;;5031079;28;20556;-66
2023/03/02 08:17:38;;;;;;;2.35;2.25;;;2.10;99.90;;;;;;5021980;28;20215;-66
2023/03/02 08:20:07;;;;;;;3.45;2.47;;;2.30;94.20;;;;;;5024103;28;20193;-66
2023/03/02 08:22:35;;;;;;;2.65;2.55;;;2.30;94.20;;;;;;5016661;28;20200;-67
2023/03/02 08:25:02;;;;;;;0.95;0.95;;;2.20;94.30;;;;;;5021998;28;20208;-68
2023/03/02 08:27:29;;;;;;;1.92;1.45;;;2.60;94.30;;;;;;5011463;28;20233;-67
2023/03/02 08:29:56;;;;;;;8.63;1.65;;;2.40;94.20;;;;;;5029916;28;20769;-68
2023/03/02 08:32:23;;;;;;;2.65;2.55;;;2.30;94.20;;;;;;5028540;28;20924;-67
2023/03/02 08:34:50;;;;;;;5.00;3.63;;;2.40;94.00;;;;;;5030161;28;20209;-67
2023/03/02 08:37:17;;;;;;;3.90;1.80;;;2.50;93.80;;;;;;5026561;28;20234;-68
2023/03/02 08:39:46;;;;;;;1.90;1.70;;;2.50;93.80;;;;;;5016094;28;20192;-68
2023/03/02 08:42:12;;;;;;;4.32;1.90;;;2.40;93.80;;;;;;5050866;28;20230;-67
2023/03/02 08:44:39;;;;;;;4.65;1.40;;;2.50;93.70;;;;;;5013877;28;20679;-67
2023/03/02 08:47:06;;;;;;;3.17;2.95;;;2.60;93.70;;;;;;5024450;28;20362;-66
2023/03/02 08:49:33;;;;;;;5.65;2.22;;;2.60;97.20;;;;;;5028196;28;20203;-67
2023/03/02 08:52:00;;;;;;;2.65;1.98;;;2.50;93.90;;;;;;5030402;28;20224;-67
2023/03/02 08:54:27;;;;;;;3.95;1.92;;;2.90;99.90;;;;;;5012538;28;20206;-67
2023/03/02 08:56:56;;;;;;;2.05;1.50;;;2.80;99.90;;;;;;5027829;28;20230;-69
2023/03/02 08:59:23;;;;;;;3.67;1.48;;;2.80;93.80;;;;;;5038157;28;20200;-68
2023/03/02 09:01:49;;;;;;;1.90;1.75;;;3.00;93.70;;;;;;5032300;28;20221;-67
2023/03/02 09:04:16;;;;;;;10.15;2.95;;;3.10;94.10;;;;;;5013762;28;20208;-67
2023/03/02 09:06:44;;;;;;;3.70;2.40;;;3.10;93.60;;;;;;5022908;28;20244;-68
2023/03/02 09:09:13;;;;;;;4.28;3.97;;;3.20;93.50;;;;;;5027167;28;20196;-68
2023/03/02 09:11:41;;;;;;;0.95;0.95;;;3.20;93.40;;;;;;5009697;28;20221;-67
2023/03/02 09:14:10;;;;;;;3.67;2.05;;;3.40;93.30;;;;;;5017199;28;20189;-67
2023/03/02 09:16:36;;;;;;;6.78;5.28;;;3.50;93.10;;;;;;5025150;28;20288;-67
2023/03/02 09:19:03;;;;;;;2.33;1.95;;;3.50;93.30;;;;;;5028297;28;20196;-67
2023/03/02 09:21:30;;;;;;;5.70;3.60;;;3.50;93.40;;;;;;5027941;28;20220;-68
2023/03/02 09:23:57;;;;;;;3.17;2.42;;;3.60;93.10;;;;;;5030075;28;20755;-68
2023/03/02 09:26:24;;;;;;;7.43;3.83;;;3.70;93.00;;;;;;5029539;28;20762;-67
2023/03/02 09:28:51;;;;;;;3.22;2.97;;;3.60;92.90;;;;;;5016427;28;20617;-67
2023/03/02 09:31:20;;;;;;;2.67;2.50;;;3.70;92.90;;;;;;5015707;28;20229;-67
2023/03/02 09:33:47;;;;;;;6.82;3.65;;;3.80;92.40;;;;;;5019768;28;20693;-68
2023/03/02 09:36:20;;;;;;;5.00;4.50;;;3.90;92.30;;;;;;5021240;28;20598;-68
2023/03/02 09:38:47;;;;;;;3.55;2.33;;;3.90;92.30;;;;;;5027534;28;20670;-67
2023/03/02 09:41:51;;;;;;;2.38;2.15;;;3.90;92.20;;;;;;5028895;28;20821;-67
2023/03/02 09:44:52;;;;;;;3.22;1.98;;;3.80;92.00;;;;;;5025449;28;20204;-67
2023/03/02 09:47:27;;;;;;;8.35;3.47;;;3.90;92.30;;;;;;5020440;28;20571;-67
2023/03/02 09:50:03;;;;;;;3.45;3.15;;;4.00;92.30;;;;;;5013060;28;20195;-67
2023/03/02 09:52:33;;;;;;;4.47;3.08;;;4.10;92.30;;;;;;5028275;28;20223;-67
2023/03/02 09:55:06;;;;;;;4.10;3.05;;;4.10;92.30;;;;;;5013211;28;20605;-68
2023/03/02 09:57:37;;;;;;;7.93;3.13;;;4.20;92.20;;;;;;5010740;28;20216;-68
2023/03/02 10:00:10;;;;;;;12.10;3.80;;;4.30;92.40;;;;;;5038872;28;20255;-68
2023/03/02 10:02:46;;;;;;;3.47;2.83;;;4.40;92.30;;;;;;5028718;28;20204;-69
2023/03/02 10:05:18;;;;;;;4.45;3.22;;;4.50;92.00;;;;;;5014927;28;20247;-67
2023/03/02 10:07:46;;;;;;;4.43;2.65;;;4.50;91.60;;;;;;5028619;28;20224;-67
2023/03/02 10:10:25;;;;;;;4.43;2.75;;;4.50;91.80;;;;;;5022891;28;20204;-67
2023/03/02 10:13:13;;;;;;;5.22;3.97;;;4.70;91.60;;;;;;5018762;28;20279;-67
2023/03/02 10:15:47;;;;;;;8.13;2.60;;;4.70;91.20;;;;;;5012671;28;20814;-67
2023/03/02 10:18:20;;;;;;;3.75;2.08;;;4.60;91.40;;;;;;5019185;28;20670;-67
2023/03/02 10:20:53;;;;;;;2.63;1.88;;;4.70;91.80;;;;;;5020435;28;20220;-68
2023/03/02 10:23:37;;;;;;;3.17;2.20;;;4.80;91.40;;;;;;5028891;28;20564;-67
2023/03/02 10:26:15;;;;;;;2.35;2.10;;;4.70;91.10;;;;;;5023338;28;20584;-67
2023/03/02 10:28:48;;;;;;;4.57;4.18;;;4.70;91.20;;;;;;5016546;28;20672;-69
2023/03/02 10:31:24;;;;;;;4.63;4.22;;;4.70;91.10;;;;;;5029514;28;20220;-67
2023/03/02 10:33:52;;;;;;;10.88;3.35;;;4.70;91.50;;;;;;5024698;28;20203;-68
2023/03/02 10:36:23;;;;;;;3.50;2.75;;;4.90;91.40;;;;;;5008804;28;20243;-68
2023/03/02 10:38:51;;;;;;;7.88;3.78;;;5.00;91.00;;;;;;5008601;28;20692;-67
2023/03/02 10:41:23;;;;;;;2.53;2.33;;;5.10;91.00;;;;;;5025921;28;20579;-68
2023/03/02 10:43:52;;;;;;;5.15;2.13;;;5.20;91.00;;;;;;5029595;28;20671;-67
2023/03/02 10:46:19;;;;;;;3.45;2.47;;;5.20;90.80;;;;;;5029371;28;20216;-67
2023/03/02 10:48:52;;;;;;;5.40;3.30;;;5.20;90.90;;;;;;5027702;28;20243;-68
2023/03/02 10:51:25;;;;;;;4.55;2.80;;;5.20;90.70;;;;;;5032163;28;20256;-68
2023/03/02 10:54:03;;;;;;;5.25;3.70;;;5.30;90.80;;;;;;5032607;28;20675;-67
2023/03/02 10:56:31;;;;;;;5.47;4.00;;;5.40;91.00;;;;;;5032852;28;20232;-68
2023/03/02 10:59:02;;;;;;;11.52;4.72;;;5.50;90.90;;;;;;5041272;28;20188;-67
2023/03/02 11:01:30;;;;;;;5.63;3.53;;;5.50;90.70;;;;;;5028518;28;20221;-68
2023/03/02 11:04:00;;;;;;;6.03;5.15;;;5.70;90.60;;;;;;5013042;28;20206;-68
2023/03/02 11:06:29;;;;;;;4.53;4.15;;;5.90;90.40;;;;;;5026425;28;20221;-67
2023/03/02 11:09:00;;;;;;;6.00;4.13;;;6.00;90.20;;;;;;5044190;28;20206;-69
2023/03/02 11:11:27;;;;;;;7.18;5.88;;;6.10;89.90;;;;;;5038805;28;20243;-67
2023/03/02 11:13:55;;;;;;;4.80;3.97;;;6.20;89.40;;;;;;5032069;28;20193;-68
2023/03/02 11:16:27;;;;;;;6.32;3.42;;;6.00;87.60;;;;;;5032909;28;20679;-67
2023/03/02 11:18:57;;;;;;;10.20;4.60;;;5.60;91.30;;;;;;5020402;28;20225;-68
2023/03/02 11:21:30;;;;;;;3.70;2.85;;;5.70;88.30;;;;;;5021971;28;20224;-68
2023/03/02 11:24:04;;;;;;;9.35;6.28;;;5.80;88.60;;;;;;5032033;28;20251;-68
2023/03/02 11:26:35;;;;;;;11.20;5.03;;;5.80;89.00;;;;;;5021559;28;20226;-68
2023/03/02 11:29:06;;;;;;;6.10;5.45;;;5.80;88.50;;;;;;5030146;28;20207;-68
2023/03/02 11:31:41;;;;;;;5.50;3.33;;;5.90;88.90;;;;;;5031589;28;20219;-67
2023/03/02 11:34:27;;;;;;;5.07;3.33;;;5.70;89.00;;;;;;5027181;28;20281;-68
2023/03/02 11:37:12;;;;;;;5.45;2.80;;;5.20;96.30;;;;;;5011749;28;20233;-68
2023/03/02 11:40:04;;;;;;;4.32;3.40;;;5.40;89.40;;;;;;5015601;28;20660;-68
2023/03/02 11:42:35;;;;;;;7.68;3.53;;;5.40;90.00;;;;;;5014887;28;20249;-68
2023/03/02 11:45:08;;;;;;;18.50;8.07;;;5.70;90.50;;;;;;5031220;28;20209;-67
2023/03/02 11:47:37;;;;;;;2.40;2.30;;;5.60;89.10;;;;;;5031457;28;20250;-68
2023/03/02 11:50:06;;;;;;;6.32;4.68;;;5.70;89.60;;;;;;5026050;28;20189;-68
2023/03/02 11:52:41;;;;;;;11.35;4.90;;;5.80;89.80;;;;;;5012139;28;20212;-68
2023/03/02 11:55:17;;;;;;;3.42;3.13;;;5.90;89.40;;;;;;5025135;28;20223;-68
2023/03/02 11:57:48;;;;;;;15.27;5.35;;;6.00;88.80;;;;;;5029388;28;20203;-67
2023/03/02 12:00:27;;;;;;;10.60;4.13;;;6.10;89.10;;;;;;5030783;28;20546;-68
2023/03/02 12:03:01;;;;;;;4.68;3.28;;;6.10;88.50;;;;;;5031479;28;20206;-68
2023/03/02 12:05:30;;;;;;;7.43;5.25;;;6.20;88.80;;;;;;5031286;28;20224;-69
2023/03/02 12:08:00;;;;;;;8.93;4.75;;;6.20;88.80;;;;;;5010959;28;20219;-69
2023/03/02 12:10:33;;;;;;;5.88;4.55;;;6.30;89.00;;;;;;5024421;28;20245;-68
2023/03/02 12:13:07;;;;;;;6.82;2.35;;;6.40;88.90;;;;;;5031359;28;20680;-69
2023/03/02 12:15:42;;;;;;;4.20;3.90;;;6.50;88.00;;;;;;5031299;28;20691;-68
2023/03/02 12:18:29;;;;;;;7.07;5.78;;;6.50;88.40;;;;;;5029060;28;20223;-68
2023/03/02 12:21:01;;;;;;;8.43;5.20;;;6.50;88.20;;;;;;5031172;28;20223;-69
2023/03/02 12:23:32;;;;;;;14.20;6.90;;;6.50;88.70;;;;;;5031079;28;20203;-68
2023/03/02 12:26:05;;;;;;;8.82;5.20;;;6.60;88.30;;;;;;5030745;28;20228;-68
2023/03/02 12:28:34;;;;;;;8.98;2.88;;;6.60;87.70;;;;;;5009838;28;20225;-69
2023/03/02 12:31:07;;;;;;;4.95;4.43;;;6.60;94.10;;;;;;5022984;28;20321;-67
2023/03/02 12:33:42;;;;;;;4.80;2.78;;;6.70;86.90;;;;;;5011437;28;20197;-68
2023/03/02 12:36:15;;;;;;;7.50;3.17;;;6.60;87.20;;;;;;5022623;28;20282;-68
2023/03/02 12:38:46;;;;;;;6.13;5.60;;;6.60;88.30;;;;;;5029777;28;20220;-68
2023/03/02 12:41:28;;;;;;;6.25;4.10;;;6.60;89.00;;;;;;5032417;28;20265;-68
2023/03/02 12:44:09;;;;;;;7.38;4.20;;;6.60;88.00;;;;;;5031246;28;20563;-67
2023/03/02 12:46:39;;;;;;;8.65;4.13;;;6.80;87.30;;;;;;5029879;28;20581;-67
2023/03/02 12:49:16;;;;;;;5.13;3.65;;;6.80;87.10;;;;;;5029559;28;20781;-68
2023/03/02 12:51:53;;;;;;;4.05;3.58;;;6.90;87.70;;;;;;5029532;28;20250;-68
2023/03/02 12:54:23;;;;;;;6.10;4.43;;;7.10;87.70;;;;;;5031005;28;20207;-68
2023/03/02 12:56:50;;;;;;;8.98;3.47;;;7.10;86.10;;;;;;5019018;28;20250;-67
2023/03/02 12:59:23;;;;;;;5.57;3.90;;;7.10;85.70;;;;;;5028251;28;20201;-68
2023/03/02 13:01:50;;;;;;;7.70;5.45;;;7.10;86.90;;;;;;5022370;28;20714;-68
2023/03/02 13:04:24;;;;;;;11.40;5.68;;;7.10;86.90;;;;;;5014743;28;20197;-68
2023/03/02 13:06:52;;;;;;;7.97;4.13;;;7.20;86.10;;;;;;5023653;28;20220;-67
2023/03/02 13:09:19;;;;;;;4.95;4.43;;;7.40;85.70;;;;;;5031106;28;20211;-68